Time;durP1;ratioP1;P1;durP2;ratioP2;P2;SDS_P1;SDS_P2;PMS_P1;PMS_P2;Temp;Humidity;BMP_temperature;BMP_pressure;BME280_temperature;BME280_humidity;BME280_pressure;Samples;Min_cycle;Max_cycle;Signal;HPM_P1;HPM_P2
2020/12/24 00:01:58;;;;;;;31.30;17.65;;;;;;;9.68;65.59;94188.84;4997630;28;20170;-86
2020/12/24 00:04:24;;;;;;;31.55;19.55;;;;;;;9.71;65.44;94209.44;4995658;28;20049;-83
2020/12/24 00:06:49;;;;;;;39.30;23.60;;;;;;;9.73;66.05;94209.16;4993443;28;20549;-86
2020/12/24 00:09:14;;;;;;;28.23;18.77;;;;;;;9.72;65.15;94203.09;5004286;28;20079;-86
2020/12/24 00:11:40;;;;;;;29.40;18.48;;;;;;;9.68;64.52;94204.69;4991922;28;20054;-83
2020/12/24 00:14:06;;;;;;;31.17;19.08;;;;;;;9.49;64.64;94183.41;5000097;28;20042;-83
2020/12/24 00:16:31;;;;;;;34.22;19.90;;;;;;;9.46;65.27;94172.63;4997629;28;20033;-83
2020/12/24 00:18:57;;;;;;;28.95;18.20;;;;;;;9.56;65.28;94191.06;5002095;28;20668;-83
2020/12/24 00:21:22;;;;;;;29.10;17.65;;;;;;;9.51;65.28;94189.22;4995308;28;20064;-83
2020/12/24 00:23:48;;;;;;;29.23;16.80;;;;;;;9.41;64.95;94172.66;5000625;28;21937;-83
2020/12/24 00:26:13;;;;;;;31.33;16.98;;;;;;;9.41;64.69;94184.00;4997176;28;20052;-83
2020/12/24 00:28:39;;;;;;;30.05;18.23;;;;;;;9.33;65.87;94173.22;4999296;28;20022;-83
2020/12/24 00:31:08;;;;;;;41.63;23.30;;;;;;;9.30;66.81;94176.41;4996582;28;20462;-83
2020/12/24 00:33:34;;;;;;;25.98;15.45;;;;;;;9.29;66.87;94190.63;4998148;28;20060;-83
2020/12/24 00:36:01;;;;;;;31.67;16.23;;;;;;;9.20;67.29;94184.34;5002044;28;20021;-83
2020/12/24 00:38:28;;;;;;;26.77;14.10;;;;;;;9.13;67.25;94185.44;4998823;28;20095;-83
2020/12/24 00:40:54;;;;;;;20.52;11.95;;;;;;;9.09;67.51;94178.31;4995495;28;20086;-83
2020/12/24 00:43:20;;;;;;;21.58;13.20;;;;;;;9.14;67.99;94183.56;4999140;28;20124;-83
2020/12/24 00:45:45;;;;;;;19.17;12.35;;;;;;;9.00;67.40;94154.38;5000050;28;20025;-83
2020/12/24 00:48:11;;;;;;;18.20;12.07;;;;;;;9.05;67.52;94156.19;5002120;28;20076;-83
2020/12/24 00:50:37;;;;;;;21.00;12.00;;;;;;;9.13;67.05;94172.28;4999884;28;20049;-84
2020/12/24 00:53:02;;;;;;;22.98;13.02;;;;;;;9.11;66.78;94174.38;4998118;28;20046;-83
2020/12/24 00:55:28;;;;;;;24.40;12.73;;;;;;;9.08;66.82;94169.66;5001297;28;20037;-84
2020/12/24 00:57:54;;;;;;;21.92;12.57;;;;;;;9.05;67.57;94175.44;4999775;28;20038;-83
2020/12/24 01:00:19;;;;;;;19.80;12.35;;;;;;;9.08;67.27;94174.91;5005757;28;20025;-83
2020/12/24 01:02:45;;;;;;;17.50;11.02;;;;;;;9.10;67.31;94185.97;4998091;28;20095;-83
2020/12/24 01:05:10;;;;;;;16.63;10.20;;;;;;;9.10;67.04;94180.69;4998789;28;20565;-83
2020/12/24 01:07:36;;;;;;;18.52;10.45;;;;;;;9.23;66.48;94199.66;4997605;28;20045;-83
2020/12/24 01:10:05;;;;;;;15.57;9.65;;;;;;;9.00;66.11;94161.50;4999777;28;20128;-83
2020/12/24 01:12:31;;;;;;;14.75;8.38;;;;;;;9.18;66.86;94200.47;5005119;28;20033;-83
2020/12/24 01:14:56;;;;;;;14.00;8.55;;;;;;;9.12;67.37;94190.97;5004062;28;21019;-83
2020/12/24 01:17:22;;;;;;;14.25;8.38;;;;;;;9.11;67.30;94189.41;5005520;28;20133;-83
2020/12/24 01:19:47;;;;;;;16.25;8.45;;;;;;;8.99;67.30;94171.25;5001863;28;20037;-83
2020/12/24 01:22:13;;;;;;;13.30;7.72;;;;;;;9.05;67.08;94174.66;5001400;28;20076;-83
2020/12/24 01:24:38;;;;;;;14.27;7.60;;;;;;;8.99;67.86;94173.88;4999052;28;20029;-84
2020/12/24 01:27:04;;;;;;;12.45;8.25;;;;;;;8.93;67.80;94155.72;5002836;28;20087;-84
2020/12/24 01:29:30;;;;;;;10.88;6.85;;;;;;;8.87;67.56;94136.50;4997638;28;20117;-83
2020/12/24 01:31:56;;;;;;;13.27;7.60;;;;;;;8.84;66.97;94131.00;4997475;28;21272;-83
2020/12/24 01:34:21;;;;;;;15.23;7.85;;;;;;;8.95;67.55;94148.31;5000345;28;20486;-83
2020/12/24 01:36:47;;;;;;;14.45;7.35;;;;;;;8.92;67.37;94143.59;4995831;28;20025;-83
2020/12/24 01:39:13;;;;;;;16.70;8.13;;;;;;;9.05;67.44;94158.84;5005776;28;20052;-84
2020/12/24 01:41:40;;;;;;;12.73;8.68;;;;;;;8.83;67.20;94119.66;4997491;28;20472;-84
2020/12/24 01:44:06;;;;;;;13.68;7.43;;;;;;;8.98;66.74;94138.06;4993000;28;20046;-83
2020/12/24 01:46:31;;;;;;;11.93;8.13;;;;;;;8.91;66.63;94127.00;4994095;28;20045;-83
2020/12/24 01:48:57;;;;;;;17.83;8.05;;;;;;;8.91;67.02;94127.00;5000032;28;20526;-83
2020/12/24 01:51:29;;;;;;;15.82;7.88;;;;;;;9.09;66.33;94154.59;5002020;28;20024;-83
2020/12/24 01:53:58;;;;;;;11.63;7.93;;;;;;;8.98;65.75;94139.91;5003126;28;20088;-84
2020/12/24 01:56:25;;;;;;;12.15;8.13;;;;;;;8.95;65.44;94143.06;4999441;28;20049;-83
2020/12/24 01:58:52;;;;;;;25.77;14.18;;;;;;;8.88;65.38;94146.00;4999702;28;20454;-83
2020/12/24 02:01:18;;;;;;;31.58;16.15;;;;;;;8.91;67.07;94149.94;4999494;28;20140;-83
2020/12/24 02:03:44;;;;;;;22.27;13.43;;;;;;;8.79;67.15;94133.66;5000221;28;20104;-83
2020/12/24 02:06:11;;;;;;;22.88;11.80;;;;;;;8.85;67.55;94133.34;5007728;28;20055;-83
2020/12/24 02:08:38;;;;;;;17.50;11.20;;;;;;;8.96;67.67;94153.34;4998043;28;20040;-83
2020/12/24 02:11:03;;;;;;;19.15;11.52;;;;;;;8.90;67.80;94140.44;4999834;28;20132;-83
2020/12/24 02:13:29;;;;;;;15.30;9.32;;;;;;;8.72;67.34;94118.09;4998089;28;20038;-83
2020/12/24 02:15:55;;;;;;;19.13;8.93;;;;;;;8.85;67.34;94143.88;4999518;28;20104;-84
2020/12/24 02:18:20;;;;;;;13.57;8.93;;;;;;;8.69;67.15;94129.19;5006944;28;20058;-83
2020/12/24 02:20:46;;;;;;;12.73;7.80;;;;;;;8.58;68.54;94125.00;4997439;28;20384;-82
2020/12/24 02:23:12;;;;;;;10.30;6.65;;;;;;;8.57;68.58;94112.88;5000245;28;20046;-83
2020/12/24 02:25:40;;;;;;;12.93;7.35;;;;;;;8.51;68.56;94111.31;5001312;28;20439;-83
2020/12/24 02:28:06;;;;;;;11.40;7.45;;;;;;;8.75;68.68;94149.19;5004323;28;20033;-83
2020/12/24 02:30:31;;;;;;;10.45;6.75;;;;;;;8.72;68.52;94147.09;4996378;28;20045;-83
2020/12/24 02:32:57;;;;;;;14.18;7.05;;;;;;;8.73;68.17;94153.16;5002653;28;20021;-83
2020/12/24 02:35:22;;;;;;;12.30;7.90;;;;;;;8.70;68.88;94146.56;4998544;28;20041;-83
2020/12/24 02:37:48;;;;;;;13.75;8.75;;;;;;;8.40;68.85;94105.31;5004601;28;20045;-83
2020/12/24 02:40:13;;;;;;;16.15;7.82;;;;;;;8.60;69.10;94146.59;4999772;28;20045;-83
2020/12/24 02:42:39;;;;;;;14.80;7.78;;;;;;;8.47;68.75;94116.34;4997755;28;20549;-84
2020/12/24 02:45:06;;;;;;;16.92;8.50;;;;;;;8.49;68.80;94118.72;5004728;28;20025;-83
2020/12/24 02:47:32;;;;;;;15.63;9.23;;;;;;;8.45;68.76;94113.19;4998079;28;20398;-84
2020/12/24 02:49:58;;;;;;;15.45;9.20;;;;;;;8.54;69.17;94122.13;5012964;28;20069;-83
2020/12/24 02:52:25;;;;;;;15.00;9.60;;;;;;;8.58;69.31;94130.28;4997964;28;20050;-83
2020/12/24 02:54:50;;;;;;;18.38;10.85;;;;;;;8.57;69.33;94124.22;4994825;28;20045;-84
2020/12/24 02:57:16;;;;;;;18.10;11.98;;;;;;;8.57;68.35;94102.34;5001499;28;20018;-83
2020/12/24 02:59:41;;;;;;;15.77;9.57;;;;;;;8.56;68.23;94101.56;4994067;28;20036;-83
2020/12/24 03:02:07;;;;;;;14.30;9.32;;;;;;;8.75;67.88;94133.38;4999519;28;20632;-83
2020/12/24 03:04:33;;;;;;;16.73;9.60;;;;;;;8.65;67.04;94099.16;5001600;28;20049;-83
2020/12/24 03:06:59;;;;;;;14.18;7.93;;;;;;;8.72;67.07;94114.69;4994433;28;20133;-83
2020/12/24 03:09:25;;;;;;;20.98;10.73;;;;;;;8.58;66.93;94090.75;5004101;28;20055;-83
2020/12/24 03:11:51;;;;;;;19.27;10.43;;;;;;;8.63;67.40;94102.06;4997585;28;20096;-83
2020/12/24 03:14:18;;;;;;;22.38;12.70;;;;;;;8.55;67.33;94084.16;4997224;28;20042;-83
2020/12/24 03:16:44;;;;;;;19.40;10.38;;;;;;;8.52;67.27;94076.03;4962731;28;20046;-84
2020/12/24 03:19:10;;;;;;;21.88;12.85;;;;;;;8.50;67.24;94078.91;4996787;28;20061;-84
2020/12/24 03:21:35;;;;;;;20.08;12.15;;;;;;;8.65;67.15;94112.31;5000050;28;20026;-85
2020/12/24 03:24:01;;;;;;;24.52;14.05;;;;;;;8.60;67.30;94115.00;5004914;28;20034;-84
2020/12/24 03:26:26;;;;;;;22.50;13.05;;;;;;;8.53;67.38;94114.47;4998729;28;20379;-84
2020/12/24 03:28:52;;;;;;;26.05;15.27;;;;;;;8.60;67.41;94120.25;4997025;28;20045;-84
2020/12/24 03:31:23;;;;;;;24.17;13.85;;;;;;;8.54;66.89;94113.44;4997537;28;20045;-84
2020/12/24 03:33:49;;;;;;;14.13;10.50;;;;;;;8.53;67.28;94109.22;4996473;28;20033;-84
2020/12/24 03:36:15;;;;;;;16.23;10.05;;;;;;;8.50;67.09;94105.25;5000945;28;20059;-84
2020/12/24 03:38:41;;;;;;;13.70;9.32;;;;;;;8.64;67.39;94123.94;4993463;28;20490;-83
2020/12/24 03:41:06;;;;;;;12.98;8.63;;;;;;;8.60;67.17;94120.25;5000565;28;20627;-84
2020/12/24 03:43:32;;;;;;;14.40;9.27;;;;;;;8.52;67.13;94120.78;4994620;28;20514;-84
2020/12/24 03:45:58;;;;;;;18.55;11.23;;;;;;;8.43;67.75;94093.44;4998981;28;20135;-84
2020/12/24 03:48:23;;;;;;;13.90;10.07;;;;;;;8.58;67.86;94122.38;5000677;28;20034;-84
2020/12/24 03:50:49;;;;;;;17.13;9.93;;;;;;;8.49;67.65;94108.16;5000428;28;20036;-84
2020/12/24 03:53:15;;;;;;;18.52;10.63;;;;;;;8.35;67.53;94091.34;4994026;28;20870;-84
2020/12/24 03:55:40;;;;;;;24.15;13.63;;;;;;;8.56;67.45;94125.25;4999239;28;20623;-85
2020/12/24 03:58:06;;;;;;;50.25;23.10;;;;;;;8.51;66.97;94113.94;4998662;28;20054;-84
2020/12/24 04:00:31;;;;;;;25.80;14.75;;;;;;;8.39;67.62;94102.94;4999623;28;20032;-84
2020/12/24 04:02:57;;;;;;;18.65;12.60;;;;;;;8.48;67.45;94117.13;5001543;28;20508;-84
2020/12/24 04:05:22;;;;;;;16.75;10.25;;;;;;;8.43;67.70;94109.22;4999534;28;20569;-84
2020/12/24 04:07:49;;;;;;;22.33;14.45;;;;;;;8.53;67.83;94120.53;4999437;28;20038;-84
2020/12/24 04:10:16;;;;;;;18.33;9.98;;;;;;;8.43;67.42;94106.59;4997513;28;20045;-84
2020/12/24 04:12:42;;;;;;;20.90;10.63;;;;;;;8.36;67.11;94088.44;5000562;28;20026;-85
2020/12/24 04:15:07;;;;;;;19.58;9.40;;;;;;;8.52;67.27;94112.91;5002584;28;20425;-84
2020/12/24 04:17:33;;;;;;;12.18;7.93;;;;;;;8.50;67.09;94109.75;4998056;28;20707;-84
2020/12/24 04:19:58;;;;;;;19.77;10.30;;;;;;;8.45;66.91;94100.03;5003833;28;20103;-84
2020/12/24 04:22:24;;;;;;;18.25;9.82;;;;;;;8.53;66.91;94115.28;4996485;28;20406;-84
2020/12/24 04:24:50;;;;;;;15.52;9.48;;;;;;;8.41;67.25;94100.78;4995585;28;20147;-84
2020/12/24 04:27:16;;;;;;;18.30;9.73;;;;;;;8.57;67.55;94118.94;5003135;28;20044;-85
2020/12/24 04:29:42;;;;;;;14.05;8.05;;;;;;;8.50;67.66;94104.50;4995441;28;20030;-84
2020/12/24 04:32:07;;;;;;;13.30;8.93;;;;;;;8.41;67.67;94085.00;4997811;28;20426;-84
2020/12/24 04:34:33;;;;;;;20.33;9.82;;;;;;;8.51;67.84;94106.84;5001893;28;20041;-84
2020/12/24 04:36:59;;;;;;;17.08;10.25;;;;;;;8.42;67.79;94089.22;4998935;28;20129;-84
2020/12/24 04:39:24;;;;;;;11.80;8.65;;;;;;;8.62;67.70;94118.94;5004275;28;20037;-84
2020/12/24 04:41:52;;;;;;;20.17;10.73;;;;;;;8.43;68.22;94103.97;4997251;28;20065;-84
2020/12/24 04:44:18;;;;;;;18.25;9.52;;;;;;;8.56;68.39;94113.94;4999021;28;20034;-85
2020/12/24 04:46:44;;;;;;;15.30;10.85;;;;;;;8.59;68.49;94106.31;4997663;28;20048;-84
2020/12/24 04:49:10;;;;;;;17.48;10.82;;;;;;;8.52;68.14;94105.00;5009098;28;20132;-84
2020/12/24 04:51:36;;;;;;;16.27;10.25;;;;;;;8.55;68.01;94099.22;4998309;28;20034;-84
2020/12/24 04:54:02;;;;;;;17.52;10.05;;;;;;;8.55;68.00;94096.56;5003835;28;20450;-84
2020/12/24 04:56:27;;;;;;;13.60;9.60;;;;;;;8.48;67.83;94074.97;4993611;28;20100;-84
2020/12/24 04:58:54;;;;;;;15.13;9.43;;;;;;;8.59;68.30;94097.59;5001810;28;20517;-84
2020/12/24 05:01:20;;;;;;;17.92;10.05;;;;;;;8.55;68.62;94101.84;4996055;28;20041;-84
2020/12/24 05:03:46;;;;;;;18.33;10.32;;;;;;;8.63;68.61;94111.81;4996043;28;20079;-84
2020/12/24 05:06:18;;;;;;;16.15;9.95;;;;;;;8.63;68.47;94109.97;5004184;28;20033;-84
2020/12/24 05:08:51;;;;;;;21.77;13.18;;;;;;;8.64;68.46;94111.56;4997892;28;20038;-84
2020/12/24 05:11:24;;;;;;;20.50;12.75;;;;;;;8.56;68.38;94098.13;4995595;28;20057;-83
2020/12/24 05:13:50;;;;;;;22.23;12.82;;;;;;;8.63;68.35;94106.53;4998745;28;20041;-84
2020/12/24 05:16:16;;;;;;;19.83;12.43;;;;;;;8.60;68.45;94093.94;4998529;28;20498;-84
2020/12/24 05:18:42;;;;;;;20.30;13.35;;;;;;;8.74;67.96;94110.75;4994228;28;20050;-84
2020/12/24 05:21:08;;;;;;;17.58;11.55;;;;;;;8.57;68.47;94086.53;5003862;28;20324;-85
2020/12/24 05:23:34;;;;;;;15.88;10.02;;;;;;;8.75;67.96;94117.56;4997575;28;20103;-84
2020/12/24 05:25:59;;;;;;;17.30;11.55;;;;;;;8.55;68.18;94086.81;4998495;28;20034;-84
2020/12/24 05:28:27;;;;;;;18.73;10.38;;;;;;;8.77;67.81;94114.66;4998296;28;20050;-84
2020/12/24 05:30:54;;;;;;;19.67;11.65;;;;;;;8.74;67.79;94113.38;4996514;28;20548;-84
2020/12/24 05:33:26;;;;;;;17.73;11.65;;;;;;;8.73;68.02;94109.16;4999378;28;20090;-84
2020/12/24 05:35:52;;;;;;;16.13;11.45;;;;;;;8.78;68.67;94106.50;5006373;28;20068;-84
2020/12/24 05:38:32;;;;;;;22.27;11.75;;;;;;;8.69;68.68;94098.38;4996798;28;20160;-84
2020/12/24 05:40:57;;;;;;;16.25;10.05;;;;;;;8.41;68.55;94059.44;4996101;28;20469;-84
2020/12/24 05:43:23;;;;;;;17.75;11.30;;;;;;;8.50;68.43;94073.66;4999328;28;20041;-84
2020/12/24 05:45:48;;;;;;;18.15;9.82;;;;;;;8.62;68.35;94091.78;4996817;28;20554;-84
2020/12/24 05:48:15;;;;;;;22.92;10.95;;;;;;;8.64;67.83;94094.97;5005210;28;20036;-84
2020/12/24 05:50:44;;;;;;;16.02;11.13;;;;;;;8.53;67.80;94080.25;5001816;28;20042;-84
2020/12/24 05:53:14;;;;;;;17.55;11.20;;;;;;;8.63;67.58;94093.38;4998334;28;20042;-84
2020/12/24 05:55:42;;;;;;;19.63;12.73;;;;;;;8.51;67.35;94063.91;4995924;28;20045;-84
2020/12/24 05:58:08;;;;;;;17.05;10.98;;;;;;;8.59;67.08;94077.31;5004723;28;20082;-84
2020/12/24 06:00:42;;;;;;;15.27;10.68;;;;;;;8.63;67.40;94077.56;4993266;28;20059;-84
2020/12/24 06:03:10;;;;;;;16.45;9.60;;;;;;;8.78;67.40;94095.97;4989519;28;20116;-84
2020/12/24 06:05:56;;;;;;;22.27;11.07;;;;;;;8.78;67.43;94093.31;5000581;28;20049;-84
2020/12/24 06:08:27;;;;;;;18.90;10.90;;;;;;;8.58;67.41;94064.41;5006607;28;20042;-84
2020/12/24 06:11:06;;;;;;;18.80;11.65;;;;;;;8.76;67.77;94087.53;5003036;28;20123;-84
2020/12/24 06:13:38;;;;;;;15.20;10.38;;;;;;;8.64;67.30;94063.34;5001931;28;20458;-84
2020/12/24 06:16:06;;;;;;;19.05;12.30;;;;;;;8.86;66.85;94100.66;5002736;28;20516;-84
2020/12/24 06:18:33;;;;;;;32.95;15.80;;;;;;;8.70;66.83;94056.97;5003534;28;20069;-84
2020/12/24 06:21:00;;;;;;;27.02;17.08;;;;;;;8.91;67.35;94095.38;5004804;28;20403;-84
2020/12/24 06:23:30;;;;;;;25.63;17.73;;;;;;;8.96;68.36;94090.06;5000466;28;20069;-84
2020/12/24 06:26:00;;;;;;;27.95;18.02;;;;;;;8.91;68.08;94076.91;4998866;28;20053;-84
2020/12/24 06:28:28;;;;;;;36.78;20.15;;;;;;;8.97;67.69;94072.41;5000314;28;20053;-84
2020/12/24 06:30:59;;;;;;;27.98;16.60;;;;;;;9.13;67.69;94098.44;4994365;28;20041;-83
2020/12/24 06:33:26;;;;;;;28.75;16.83;;;;;;;9.00;67.46;94066.59;5007784;28;20017;-83
2020/12/24 06:35:52;;;;;;;29.25;17.02;;;;;;;9.19;66.85;94090.50;5001375;28;20033;-84
2020/12/24 06:38:19;;;;;;;26.48;17.42;;;;;;;9.19;66.84;94085.22;5007745;28;20041;-84
2020/12/24 06:40:44;;;;;;;30.83;18.83;;;;;;;9.12;66.80;94070.50;5004437;28;20108;-83
2020/12/24 06:43:10;;;;;;;31.92;18.10;;;;;;;9.37;67.44;94092.50;4998006;28;20131;-83
2020/12/24 06:45:38;;;;;;;26.05;15.90;;;;;;;9.40;67.82;94097.22;5001353;28;20022;-83
2020/12/24 06:48:14;;;;;;;28.52;17.10;;;;;;;9.53;67.78;94101.88;4999354;28;20544;-84
2020/12/24 06:50:41;;;;;;;26.80;15.40;;;;;;;9.50;67.62;94086.59;4999675;28;20607;-84
2020/12/24 06:53:29;;;;;;;27.58;15.90;;;;;;;9.77;67.51;94100.16;5001543;28;20132;-85
2020/12/24 06:56:13;;;;;;;23.83;16.50;;;;;;;9.94;67.13;94087.31;4999745;28;20613;-84
2020/12/24 06:58:42;;;;;;;26.98;16.10;;;;;;;9.95;66.92;94073.06;5012616;28;20466;-85
2020/12/24 07:01:20;;;;;;;25.88;14.48;;;;;;;10.10;66.34;94071.34;5002111;28;20558;-84
2020/12/24 07:03:46;;;;;;;28.23;17.52;;;;;;;10.31;65.81;94096.56;5001132;28;20029;-85
2020/12/24 07:06:13;;;;;;;31.98;19.48;;;;;;;10.39;66.44;94093.28;5005374;28;20129;-84
2020/12/24 07:08:41;;;;;;;27.88;17.95;;;;;;;10.59;65.93;94095.72;5000577;28;20034;-85
2020/12/24 07:11:07;;;;;;;36.28;23.02;;;;;;;10.50;65.32;94063.06;5000421;28;20053;-85
2020/12/24 07:13:43;;;;;;;32.80;21.60;;;;;;;10.83;64.74;94098.38;5003098;28;20069;-85
2020/12/24 07:16:13;;;;;;;31.38;20.30;;;;;;;10.73;64.78;94061.47;4996723;28;20046;-85
2020/12/24 07:18:40;;;;;;;32.92;21.48;;;;;;;10.80;64.15;94064.53;4999308;28;20076;-84
2020/12/24 07:21:08;;;;;;;48.50;29.55;;;;;;;10.91;63.30;94078.44;5001197;28;20021;-86
2020/12/24 07:23:38;;;;;;;46.58;26.67;;;;;;;11.02;63.09;94101.03;5001265;28;20604;-85
2020/12/24 07:26:06;;;;;;;53.08;26.55;;;;;;;10.89;62.96;94073.44;4999915;28;20045;-85
2020/12/24 07:28:36;;;;;;;43.95;26.80;;;;;;;10.85;62.80;94065.28;5003316;28;20057;-85
2020/12/24 07:31:34;;;;;;;46.75;28.17;;;;;;;10.95;62.99;94077.56;4997893;28;20049;-85
2020/12/24 07:34:01;;;;;;;47.83;32.03;;;;;;;10.95;62.73;94071.50;4992601;28;20046;-85
2020/12/24 07:36:26;;;;;;;45.95;31.85;;;;;;;10.91;62.61;94073.13;4984661;28;20037;-84
2020/12/24 07:38:52;;;;;;;49.88;31.42;;;;;;;10.96;61.46;94088.94;5004286;28;20135;-85
2020/12/24 07:41:20;;;;;;;46.28;29.20;;;;;;;10.68;60.84;94049.09;5000539;28;21056;-84
2020/12/24 07:43:45;;;;;;;48.38;31.00;;;;;;;10.95;60.47;94082.06;5003081;28;20042;-85
2020/12/24 07:46:11;;;;;;;47.92;33.00;;;;;;;10.88;60.42;94076.38;5004469;28;20350;-85
2020/12/24 07:48:38;;;;;;;72.35;46.83;;;;;;;10.72;60.64;94042.19;5000237;28;20033;-85
2020/12/24 07:51:08;;;;;;;123.97;83.20;;;;;;;10.94;61.93;94069.94;5003231;28;20029;-85
2020/12/24 07:53:34;;;;;;;54.47;36.22;;;;;;;10.91;63.10;94083.72;5000919;28;20043;-85
2020/12/24 07:56:08;;;;;;;59.28;41.85;;;;;;;10.74;63.08;94047.97;5006349;28;20117;-85
2020/12/24 07:58:34;;;;;;;66.30;46.03;;;;;;;10.73;63.13;94050.91;4997628;28;20069;-84
2020/12/24 08:01:05;;;;;;;69.35;50.00;;;;;;;10.84;63.91;94062.94;4991042;28;20588;-85
2020/12/24 08:03:31;;;;;;;62.08;42.28;;;;;;;11.01;63.66;94094.97;4997295;28;20034;-85
2020/12/24 08:06:05;;;;;;;64.97;39.67;;;;;;;10.96;63.37;94067.78;4997431;28;20153;-83
2020/12/24 08:08:35;;;;;;;56.17;38.75;;;;;;;11.14;62.97;94086.31;4993786;28;20052;-85
2020/12/24 08:11:01;;;;;;;57.03;38.00;;;;;;;11.10;62.71;94069.44;4997882;28;20087;-85
2020/12/24 08:13:27;;;;;;;54.03;38.38;;;;;;;11.26;62.21;94070.03;4998754;28;20544;-84
2020/12/24 08:15:56;;;;;;;52.83;35.08;;;;;;;11.35;62.54;94080.75;4998756;28;20050;-85
2020/12/24 08:18:29;;;;;;;54.22;33.72;;;;;;;11.26;62.39;94064.75;5007312;28;20050;-84
2020/12/24 08:21:10;;;;;;;51.47;34.47;;;;;;;11.40;61.79;94070.91;5000902;28;20466;-83
2020/12/24 08:23:47;;;;;;;49.75;35.33;;;;;;;11.49;62.35;94063.09;4997093;28;20153;-83
2020/12/24 08:26:18;;;;;;;52.25;33.35;;;;;;;11.65;62.52;94083.78;5013223;28;20165;-84
2020/12/24 08:28:51;;;;;;;51.60;34.80;;;;;;;11.64;62.62;94079.53;5002093;28;20038;-82
2020/12/24 08:31:18;;;;;;;49.45;33.45;;;;;;;11.80;62.23;94085.44;4985857;28;20037;-88
2020/12/24 08:33:48;;;;;;;53.10;32.35;;;;;;;11.79;61.17;94067.19;5000228;28;20515;-85
2020/12/24 08:36:17;;;;;;;59.92;35.33;;;;;;;11.90;61.12;94081.84;4998431;28;20531;-85
2020/12/24 08:38:43;;;;;;;58.03;39.58;;;;;;;12.04;61.77;94080.00;5000324;28;20120;-80
2020/12/24 08:41:25;;;;;;;59.25;41.40;;;;;;;12.04;61.08;94075.50;4995010;28;20046;-81
2020/12/24 08:43:55;;;;;;;60.15;41.53;;;;;;;12.29;60.11;94086.75;5004859;28;20038;-81
2020/12/24 08:46:24;;;;;;;53.45;36.30;;;;;;;12.36;59.31;94082.66;4996252;28;20033;-80
2020/12/24 08:48:50;;;;;;;58.22;39.38;;;;;;;12.39;59.41;94082.06;4998918;28;20705;-81
2020/12/24 08:51:18;;;;;;;65.80;41.92;;;;;;;12.46;59.52;94085.09;5003486;28;20053;-80
2020/12/24 08:53:44;;;;;;;59.17;39.80;;;;;;;12.53;59.51;94074.13;4999141;28;20061;-82
2020/12/24 08:56:14;;;;;;;63.42;41.80;;;;;;;12.67;59.40;94082.06;4996932;28;20165;-80
2020/12/24 08:59:07;;;;;;;57.00;39.65;;;;;;;12.65;58.97;94069.13;4999154;28;20034;-80
2020/12/24 09:01:38;;;;;;;64.82;41.35;;;;;;;12.73;59.25;94060.47;4995836;28;20061;-80
2020/12/24 09:04:11;;;;;;;60.90;41.47;;;;;;;12.76;59.25;94056.44;4998199;28;20072;-81
2020/12/24 09:06:38;;;;;;;66.95;43.30;;;;;;;12.83;58.93;94047.03;5001797;28;20028;-81
2020/12/24 09:09:03;;;;;;;62.13;44.00;;;;;;;12.98;58.83;94053.88;4999912;28;20144;-81
2020/12/24 09:11:33;;;;;;;64.90;46.08;;;;;;;13.09;57.94;94047.31;4992358;28;20091;-79
2020/12/24 09:14:02;;;;;;;67.60;45.78;;;;;;;13.20;57.51;94046.00;4993699;28;20042;-80
2020/12/24 09:16:31;;;;;;;70.55;46.53;;;;;;;13.36;57.23;94035.84;4990670;28;21150;-80
2020/12/24 09:19:03;;;;;;;65.85;43.53;;;;;;;13.55;56.83;94038.34;4984008;28;20060;-80
2020/12/24 09:21:28;;;;;;;60.13;42.20;;;;;;;13.62;56.65;94028.09;5006524;28;20021;-80
2020/12/24 09:24:04;;;;;;;63.70;43.72;;;;;;;13.76;56.43;94019.00;4995905;28;20622;-80
2020/12/24 09:26:30;;;;;;;69.20;44.45;;;;;;;13.88;55.38;93999.81;5003453;28;24694;-80
2020/12/24 09:28:55;;;;;;;65.28;42.95;;;;;;;14.06;55.03;94009.50;4996441;28;20107;-80
2020/12/24 09:31:21;;;;;;;60.47;41.42;;;;;;;14.20;55.05;94006.75;4992764;28;20053;-80
2020/12/24 09:33:46;;;;;;;55.58;39.53;;;;;;;14.25;54.71;93993.31;4996917;28;20033;-79
2020/12/24 09:36:14;;;;;;;55.78;39.35;;;;;;;14.46;55.17;93999.69;4983859;28;20046;-80
2020/12/24 09:38:40;;;;;;;55.50;40.72;;;;;;;14.62;54.69;93997.38;4976464;28;20262;-79
2020/12/24 09:41:05;;;;;;;56.30;38.70;;;;;;;14.78;53.92;94006.53;4982889;28;20290;-80
2020/12/24 09:43:31;;;;;;;53.60;38.42;;;;;;;14.87;53.35;93994.03;4992720;28;20076;-80
2020/12/24 09:45:56;;;;;;;58.00;39.92;;;;;;;14.97;53.27;93988.41;4986793;28;20076;-80
2020/12/24 09:48:23;;;;;;;66.38;46.40;;;;;;;15.16;53.19;93990.78;4975624;28;20754;-80
2020/12/24 09:50:48;;;;;;;72.47;49.72;;;;;;;15.26;52.23;93981.69;4996415;28;20065;-79
2020/12/24 09:53:13;;;;;;;82.15;55.38;;;;;;;15.37;51.87;93981.09;4996174;28;21836;-80
2020/12/24 09:55:39;;;;;;;85.25;55.13;;;;;;;15.45;51.75;93982.16;4998625;28;20041;-80
2020/12/24 09:58:07;;;;;;;77.63;55.20;;;;;;;15.46;51.74;93968.56;4989644;28;20041;-80
2020/12/24 10:00:32;;;;;;;79.85;55.67;;;;;;;15.53;51.41;93958.25;4993584;28;20048;-80
2020/12/24 10:02:58;;;;;;;85.43;57.42;;;;;;;15.62;51.45;93966.22;4989589;28;20029;-84
2020/12/24 10:05:23;;;;;;;85.00;58.10;;;;;;;15.66;51.04;93958.38;4996947;28;20057;-80
2020/12/24 10:07:49;;;;;;;89.78;62.60;;;;;;;15.72;51.21;93951.78;4991320;28;20731;-79
2020/12/24 10:10:14;;;;;;;84.60;58.30;;;;;;;15.79;51.72;93944.88;4993451;28;20040;-80
2020/12/24 10:12:40;;;;;;;93.80;58.88;;;;;;;15.80;50.59;93950.97;4995716;28;20320;-80
2020/12/24 10:15:05;;;;;;;85.93;59.80;;;;;;;15.87;51.18;93945.97;5001854;28;20040;-80
2020/12/24 10:17:31;;;;;;;78.13;53.78;;;;;;;15.96;50.45;93949.38;4998800;28;20061;-80
2020/12/24 10:19:56;;;;;;;65.28;46.85;;;;;;;16.00;49.82;93944.97;4990719;28;20049;-80
2020/12/24 10:22:23;;;;;;;61.45;44.45;;;;;;;16.04;49.12;93945.91;4997016;28;20049;-80
2020/12/24 10:24:48;;;;;;;69.95;45.38;;;;;;;16.09;49.06;93934.28;4996724;28;20311;-80
2020/12/24 10:27:14;;;;;;;61.38;43.40;;;;;;;16.07;48.79;93923.19;5002670;28;20462;-80
2020/12/24 10:29:40;;;;;;;66.25;46.63;;;;;;;16.22;48.73;93935.97;4997197;28;20046;-80
2020/12/24 10:32:07;;;;;;;61.55;44.03;;;;;;;16.28;48.50;93934.69;4993274;28;20073;-80
2020/12/24 10:34:32;;;;;;;69.45;45.13;;;;;;;16.25;48.22;93914.00;4997802;28;20042;-80
2020/12/24 10:37:00;;;;;;;61.95;40.80;;;;;;;16.31;48.46;93912.72;4980353;28;20050;-80
2020/12/24 10:39:26;;;;;;;56.65;39.53;;;;;;;16.45;48.06;93923.94;4993964;28;20496;-81
2020/12/24 10:41:52;;;;;;;57.75;41.83;;;;;;;16.41;48.01;93912.38;4991575;28;20566;-80
2020/12/24 10:44:18;;;;;;;69.18;49.25;;;;;;;16.39;47.69;93914.56;4993215;28;20052;-80
2020/12/24 10:46:44;;;;;;;71.10;51.92;;;;;;;16.48;47.05;93909.97;4996714;28;20030;-80
2020/12/24 10:49:10;;;;;;;73.13;52.70;;;;;;;16.60;46.70;93904.75;4992162;28;20034;-80
2020/12/24 10:51:36;;;;;;;65.82;44.60;;;;;;;16.59;47.76;93876.50;4997751;28;20025;-80
2020/12/24 10:54:03;;;;;;;62.25;43.47;;;;;;;16.76;47.77;93889.72;4995221;28;20034;-81
2020/12/24 10:56:28;;;;;;;77.70;50.08;;;;;;;16.91;47.15;93893.69;4994858;28;20600;-80
2020/12/24 10:58:54;;;;;;;75.85;56.72;;;;;;;16.83;45.85;93881.22;4986622;28;20508;-80
2020/12/24 11:01:20;;;;;;;84.38;58.92;;;;;;;17.00;45.85;93882.97;4995042;28;20041;-80
2020/12/24 11:03:47;;;;;;;98.82;69.03;;;;;;;17.05;45.78;93885.47;4990268;28;20704;-81
2020/12/24 11:06:21;;;;;;;88.05;60.97;;;;;;;17.11;45.57;93886.81;4999414;28;20482;-80
2020/12/24 11:08:47;;;;;;;87.97;61.13;;;;;;;17.12;45.51;93867.78;4994551;28;20061;-80
2020/12/24 11:11:13;;;;;;;76.75;56.50;;;;;;;17.24;44.81;93875.09;4992462;28;20053;-80
2020/12/24 11:13:41;;;;;;;84.97;58.75;;;;;;;17.35;44.63;93864.78;4979512;28;20481;-81
2020/12/24 11:16:07;;;;;;;87.43;61.42;;;;;;;17.47;45.41;93872.81;4993862;28;21133;-80
2020/12/24 11:18:33;;;;;;;78.10;54.42;;;;;;;17.53;44.73;93866.16;4997056;28;20042;-80
2020/12/24 11:20:59;;;;;;;73.55;52.80;;;;;;;17.58;44.72;93858.72;5004278;28;20565;-79
2020/12/24 11:23:25;;;;;;;66.20;51.50;;;;;;;17.55;44.96;93861.25;4998253;28;20152;-80
2020/12/24 11:25:50;;;;;;;72.85;51.00;;;;;;;17.46;44.22;93853.34;4994873;28;20037;-80